sensor_id;sensor_type;location;lat;lon;timestamp;temperature;humidity
39033;DHT22;24794;51.982;5.878;2023-06-14T00:00:44;22.40;53.90
39033;DHT22;24794;51.982;5.878;2023-06-14T00:01:45;22.30;53.90
39033;DHT22;24794;51.982;5.878;2023-06-14T00:02:48;22.30;54.00
39033;DHT22;24794;51.982;5.878;2023-06-14T00:03:49;22.30;54.10
39033;DHT22;24794;51.982;5.878;2023-06-14T00:04:49;22.30;54.10
39033;DHT22;24794;51.982;5.878;2023-06-14T00:05:52;22.20;54.20
39033;DHT22;24794;51.982;5.878;2023-06-14T00:06:53;22.20;54.30
39033;DHT22;24794;51.982;5.878;2023-06-14T00:07:54;22.20;54.30
39033;DHT22;24794;51.982;5.878;2023-06-14T00:08:54;22.10;54.30
39033;DHT22;24794;51.982;5.878;2023-06-14T00:09:55;22.10;54.40
39033;DHT22;24794;51.982;5.878;2023-06-14T00:10:55;22.10;54.40
39033;DHT22;24794;51.982;5.878;2023-06-14T00:11:56;22.10;54.40
39033;DHT22;24794;51.982;5.878;2023-06-14T00:12:56;22.10;54.50
39033;DHT22;24794;51.982;5.878;2023-06-14T00:13:57;22.10;54.50
39033;DHT22;24794;51.982;5.878;2023-06-14T00:14:58;22.10;54.50
39033;DHT22;24794;51.982;5.878;2023-06-14T00:15:58;22.10;54.60
39033;DHT22;24794;51.982;5.878;2023-06-14T00:17:01;22.10;54.60
39033;DHT22;24794;51.982;5.878;2023-06-14T00:18:07;22.10;54.60
39033;DHT22;24794;51.982;5.878;2023-06-14T00:19:11;22.10;54.60
39033;DHT22;24794;51.982;5.878;2023-06-14T00:20:11;22.00;54.50
39033;DHT22;24794;51.982;5.878;2023-06-14T00:21:12;22.00;54.60
39033;DHT22;24794;51.982;5.878;2023-06-14T00:22:12;22.00;54.70
39033;DHT22;24794;51.982;5.878;2023-06-14T00:23:13;22.00;54.70
39033;DHT22;24794;51.982;5.878;2023-06-14T00:24:13;22.00;54.80
39033;DHT22;24794;51.982;5.878;2023-06-14T00:25:14;22.00;54.80
39033;DHT22;24794;51.982;5.878;2023-06-14T00:26:14;22.00;54.80
39033;DHT22;24794;51.982;5.878;2023-06-14T00:27:17;22.00;54.90
39033;DHT22;24794;51.982;5.878;2023-06-14T00:28:18;22.00;55.10
39033;DHT22;24794;51.982;5.878;2023-06-14T00:29:19;21.90;55.00
39033;DHT22;24794;51.982;5.878;2023-06-14T00:30:19;21.90;55.10
39033;DHT22;24794;51.982;5.878;2023-06-14T00:31:20;21.90;55.20
39033;DHT22;24794;51.982;5.878;2023-06-14T00:32:21;21.90;55.30
39033;DHT22;24794;51.982;5.878;2023-06-14T00:33:25;21.90;55.30
39033;DHT22;24794;51.982;5.878;2023-06-14T00:34:26;21.90;55.30
39033;DHT22;24794;51.982;5.878;2023-06-14T00:35:27;21.90;55.30
39033;DHT22;24794;51.982;5.878;2023-06-14T00:36:27;21.80;55.30
39033;DHT22;24794;51.982;5.878;2023-06-14T00:37:28;21.90;55.40
39033;DHT22;24794;51.982;5.878;2023-06-14T00:38:28;21.90;55.40
39033;DHT22;24794;51.982;5.878;2023-06-14T00:39:28;21.90;55.40
39033;DHT22;24794;51.982;5.878;2023-06-14T00:40:29;21.90;55.50
39033;DHT22;24794;51.982;5.878;2023-06-14T00:41:29;21.80;55.40
39033;DHT22;24794;51.982;5.878;2023-06-14T00:42:31;21.90;55.50
39033;DHT22;24794;51.982;5.878;2023-06-14T00:43:31;21.80;55.40
39033;DHT22;24794;51.982;5.878;2023-06-14T00:44:32;21.80;55.50
39033;DHT22;24794;51.982;5.878;2023-06-14T00:45:32;21.70;55.60
39033;DHT22;24794;51.982;5.878;2023-06-14T00:46:36;21.70;55.60
39033;DHT22;24794;51.982;5.878;2023-06-14T00:47:37;21.70;55.70
39033;DHT22;24794;51.982;5.878;2023-06-14T00:48:39;21.70;55.80
39033;DHT22;24794;51.982;5.878;2023-06-14T00:49:40;21.70;55.80
39033;DHT22;24794;51.982;5.878;2023-06-14T00:50:41;21.70;55.80
39033;DHT22;24794;51.982;5.878;2023-06-14T00:51:46;21.70;55.80
39033;DHT22;24794;51.982;5.878;2023-06-14T00:52:46;21.70;55.80
39033;DHT22;24794;51.982;5.878;2023-06-14T00:53:47;21.70;55.80
39033;DHT22;24794;51.982;5.878;2023-06-14T00:54:48;21.70;56.40
39033;DHT22;24794;51.982;5.878;2023-06-14T00:55:49;21.70;55.80
39033;DHT22;24794;51.982;5.878;2023-06-14T00:56:49;21.70;55.90
39033;DHT22;24794;51.982;5.878;2023-06-14T00:57:50;21.70;56.00
39033;DHT22;24794;51.982;5.878;2023-06-14T00:58:51;21.70;56.00
39033;DHT22;24794;51.982;5.878;2023-06-14T00:59:52;21.70;56.00
39033;DHT22;24794;51.982;5.878;2023-06-14T01:00:53;21.70;56.00
39033;DHT22;24794;51.982;5.878;2023-06-14T01:01:54;21.60;56.00
39033;DHT22;24794;51.982;5.878;2023-06-14T01:02:55;21.70;56.00
39033;DHT22;24794;51.982;5.878;2023-06-14T01:03:57;21.60;55.90
39033;DHT22;24794;51.982;5.878;2023-06-14T01:04:58;21.60;56.00
39033;DHT22;24794;51.982;5.878;2023-06-14T01:06:22;21.60;56.10
39033;DHT22;24794;51.982;5.878;2023-06-14T01:09:03;21.60;56.10
39033;DHT22;24794;51.982;5.878;2023-06-14T01:11:54;21.50;56.20
39033;DHT22;24794;51.982;5.878;2023-06-14T01:14:03;21.40;56.30
39033;DHT22;24794;51.982;5.878;2023-06-14T01:15:05;21.40;56.40
39033;DHT22;24794;51.982;5.878;2023-06-14T01:16:07;21.40;56.40
39033;DHT22;24794;51.982;5.878;2023-06-14T01:17:09;21.40;56.40
39033;DHT22;24794;51.982;5.878;2023-06-14T01:18:17;21.40;56.40
39033;DHT22;24794;51.982;5.878;2023-06-14T01:19:18;21.40;56.50
39033;DHT22;24794;51.982;5.878;2023-06-14T01:20:21;21.40;56.50
39033;DHT22;24794;51.982;5.878;2023-06-14T01:21:25;21.40;56.50
39033;DHT22;24794;51.982;5.878;2023-06-14T01:22:26;21.30;56.50
39033;DHT22;24794;51.982;5.878;2023-06-14T01:23:27;21.40;56.60
39033;DHT22;24794;51.982;5.878;2023-06-14T01:24:32;21.30;56.60
39033;DHT22;24794;51.982;5.878;2023-06-14T01:25:34;21.30;56.60
39033;DHT22;24794;51.982;5.878;2023-06-14T01:26:36;21.30;56.70
39033;DHT22;24794;51.982;5.878;2023-06-14T01:27:38;21.30;56.60
39033;DHT22;24794;51.982;5.878;2023-06-14T01:28:39;21.30;56.70
39033;DHT22;24794;51.982;5.878;2023-06-14T01:29:40;21.30;56.70
39033;DHT22;24794;51.982;5.878;2023-06-14T01:30:48;21.30;56.80
39033;DHT22;24794;51.982;5.878;2023-06-14T01:31:53;21.30;56.80
39033;DHT22;24794;51.982;5.878;2023-06-14T01:32:54;21.30;56.80
39033;DHT22;24794;51.982;5.878;2023-06-14T01:33:56;21.30;56.90
39033;DHT22;24794;51.982;5.878;2023-06-14T01:34:56;21.30;56.90
39033;DHT22;24794;51.982;5.878;2023-06-14T01:35:57;21.30;56.90
39033;DHT22;24794;51.982;5.878;2023-06-14T01:37:00;21.30;56.90
39033;DHT22;24794;51.982;5.878;2023-06-14T01:38:02;21.30;56.90
39033;DHT22;24794;51.982;5.878;2023-06-14T01:39:04;21.30;56.90
39033;DHT22;24794;51.982;5.878;2023-06-14T01:40:07;21.30;56.90
39033;DHT22;24794;51.982;5.878;2023-06-14T01:41:11;21.30;56.90
39033;DHT22;24794;51.982;5.878;2023-06-14T01:42:12;21.30;56.90
39033;DHT22;24794;51.982;5.878;2023-06-14T01:43:14;21.20;56.90
39033;DHT22;24794;51.982;5.878;2023-06-14T01:44:16;21.20;57.00
39033;DHT22;24794;51.982;5.878;2023-06-14T01:45:18;21.20;57.00
39033;DHT22;24794;51.982;5.878;2023-06-14T01:46:19;21.20;57.10
39033;DHT22;24794;51.982;5.878;2023-06-14T01:47:21;21.20;57.10
39033;DHT22;24794;51.982;5.878;2023-06-14T01:48:22;21.20;57.10
39033;DHT22;24794;51.982;5.878;2023-06-14T01:49:23;21.20;57.20
39033;DHT22;24794;51.982;5.878;2023-06-14T01:50:23;21.10;57.20
39033;DHT22;24794;51.982;5.878;2023-06-14T01:51:28;21.20;57.30
39033;DHT22;24794;51.982;5.878;2023-06-14T01:52:28;21.20;57.30
39033;DHT22;24794;51.982;5.878;2023-06-14T01:53:29;21.20;57.30
39033;DHT22;24794;51.982;5.878;2023-06-14T01:54:29;21.10;57.30
39033;DHT22;24794;51.982;5.878;2023-06-14T01:55:31;21.10;57.40
39033;DHT22;24794;51.982;5.878;2023-06-14T01:56:37;21.10;57.40
39033;DHT22;24794;51.982;5.878;2023-06-14T01:57:37;21.10;57.40
39033;DHT22;24794;51.982;5.878;2023-06-14T01:58:38;21.10;57.40
39033;DHT22;24794;51.982;5.878;2023-06-14T01:59:39;21.10;57.40
39033;DHT22;24794;51.982;5.878;2023-06-14T02:00:40;21.10;57.50
39033;DHT22;24794;51.982;5.878;2023-06-14T02:01:40;21.10;57.50
39033;DHT22;24794;51.982;5.878;2023-06-14T02:02:41;21.00;57.50
39033;DHT22;24794;51.982;5.878;2023-06-14T02:03:41;21.00;57.60
39033;DHT22;24794;51.982;5.878;2023-06-14T02:04:42;21.00;57.60
39033;DHT22;24794;51.982;5.878;2023-06-14T02:05:43;21.00;57.60
39033;DHT22;24794;51.982;5.878;2023-06-14T02:06:43;21.00;57.60
39033;DHT22;24794;51.982;5.878;2023-06-14T02:07:44;21.00;57.60
39033;DHT22;24794;51.982;5.878;2023-06-14T02:08:45;21.00;57.60
39033;DHT22;24794;51.982;5.878;2023-06-14T02:09:46;21.00;57.70
39033;DHT22;24794;51.982;5.878;2023-06-14T02:10:46;21.00;57.70
39033;DHT22;24794;51.982;5.878;2023-06-14T02:11:47;21.00;57.70
39033;DHT22;24794;51.982;5.878;2023-06-14T02:12:47;21.00;57.80
39033;DHT22;24794;51.982;5.878;2023-06-14T02:13:48;20.90;57.80
39033;DHT22;24794;51.982;5.878;2023-06-14T02:14:48;21.00;57.90
39033;DHT22;24794;51.982;5.878;2023-06-14T02:15:49;20.90;58.00
39033;DHT22;24794;51.982;5.878;2023-06-14T02:16:54;20.90;58.00
39033;DHT22;24794;51.982;5.878;2023-06-14T02:17:55;20.90;57.90
39033;DHT22;24794;51.982;5.878;2023-06-14T02:18:55;20.90;58.00
39033;DHT22;24794;51.982;5.878;2023-06-14T02:19:57;20.90;58.00
39033;DHT22;24794;51.982;5.878;2023-06-14T02:20:57;20.80;58.00
39033;DHT22;24794;51.982;5.878;2023-06-14T02:21:58;20.80;58.00
39033;DHT22;24794;51.982;5.878;2023-06-14T02:22:58;20.80;58.10
39033;DHT22;24794;51.982;5.878;2023-06-14T02:23:59;20.80;58.10
39033;DHT22;24794;51.982;5.878;2023-06-14T02:25:00;20.80;58.10
39033;DHT22;24794;51.982;5.878;2023-06-14T02:26:01;20.80;58.20
39033;DHT22;24794;51.982;5.878;2023-06-14T02:27:03;20.80;58.20
39033;DHT22;24794;51.982;5.878;2023-06-14T02:28:04;20.70;58.20
39033;DHT22;24794;51.982;5.878;2023-06-14T02:29:05;20.70;58.20
39033;DHT22;24794;51.982;5.878;2023-06-14T02:30:06;20.70;58.30
39033;DHT22;24794;51.982;5.878;2023-06-14T02:31:07;20.70;58.30
39033;DHT22;24794;51.982;5.878;2023-06-14T02:32:08;20.70;58.30
39033;DHT22;24794;51.982;5.878;2023-06-14T02:33:09;20.70;58.40
39033;DHT22;24794;51.982;5.878;2023-06-14T02:34:13;20.60;58.40
39033;DHT22;24794;51.982;5.878;2023-06-14T02:35:13;20.60;58.40
39033;DHT22;24794;51.982;5.878;2023-06-14T02:36:14;20.60;58.50
39033;DHT22;24794;51.982;5.878;2023-06-14T02:37:15;20.60;58.50
39033;DHT22;24794;51.982;5.878;2023-06-14T02:38:15;20.60;58.60
39033;DHT22;24794;51.982;5.878;2023-06-14T02:39:16;20.60;58.60
39033;DHT22;24794;51.982;5.878;2023-06-14T02:40:16;20.60;58.60
39033;DHT22;24794;51.982;5.878;2023-06-14T02:41:17;20.60;58.60
39033;DHT22;24794;51.982;5.878;2023-06-14T02:42:17;20.60;58.60
39033;DHT22;24794;51.982;5.878;2023-06-14T02:43:18;20.60;58.70
39033;DHT22;24794;51.982;5.878;2023-06-14T02:44:18;20.60;58.60
39033;DHT22;24794;51.982;5.878;2023-06-14T02:45:19;20.60;58.60
39033;DHT22;24794;51.982;5.878;2023-06-14T02:46:21;20.60;58.70
39033;DHT22;24794;51.982;5.878;2023-06-14T02:47:21;20.60;58.80
39033;DHT22;24794;51.982;5.878;2023-06-14T02:48:22;20.60;58.70
39033;DHT22;24794;51.982;5.878;2023-06-14T02:49:22;20.60;58.70
39033;DHT22;24794;51.982;5.878;2023-06-14T02:50:23;20.50;58.70
39033;DHT22;24794;51.982;5.878;2023-06-14T02:51:24;20.50;58.70
39033;DHT22;24794;51.982;5.878;2023-06-14T02:52:24;20.50;58.70
39033;DHT22;24794;51.982;5.878;2023-06-14T02:53:25;20.50;58.80
39033;DHT22;24794;51.982;5.878;2023-06-14T02:54:25;20.60;58.90
39033;DHT22;24794;51.982;5.878;2023-06-14T02:55:26;20.50;58.80
39033;DHT22;24794;51.982;5.878;2023-06-14T02:56:27;20.50;58.80
39033;DHT22;24794;51.982;5.878;2023-06-14T02:57:28;20.50;58.90
39033;DHT22;24794;51.982;5.878;2023-06-14T02:58:28;20.50;58.90
39033;DHT22;24794;51.982;5.878;2023-06-14T02:59:29;20.50;58.90
39033;DHT22;24794;51.982;5.878;2023-06-14T03:00:30;20.50;58.90
39033;DHT22;24794;51.982;5.878;2023-06-14T03:01:31;20.50;59.00
39033;DHT22;24794;51.982;5.878;2023-06-14T03:02:34;20.50;59.00
39033;DHT22;24794;51.982;5.878;2023-06-14T03:03:34;20.50;59.10
39033;DHT22;24794;51.982;5.878;2023-06-14T03:04:35;20.50;59.10
39033;DHT22;24794;51.982;5.878;2023-06-14T03:05:37;20.50;59.20
39033;DHT22;24794;51.982;5.878;2023-06-14T03:06:41;20.50;59.20
39033;DHT22;24794;51.982;5.878;2023-06-14T03:07:44;20.50;59.20
39033;DHT22;24794;51.982;5.878;2023-06-14T03:08:45;20.40;59.30
39033;DHT22;24794;51.982;5.878;2023-06-14T03:09:46;20.40;59.30
39033;DHT22;24794;51.982;5.878;2023-06-14T03:10:47;20.40;59.30
39033;DHT22;24794;51.982;5.878;2023-06-14T03:11:47;20.40;59.30
39033;DHT22;24794;51.982;5.878;2023-06-14T03:12:48;20.40;59.30
39033;DHT22;24794;51.982;5.878;2023-06-14T03:13:48;20.40;59.40
39033;DHT22;24794;51.982;5.878;2023-06-14T03:14:51;20.40;59.40
39033;DHT22;24794;51.982;5.878;2023-06-14T03:15:51;20.40;59.50
39033;DHT22;24794;51.982;5.878;2023-06-14T03:16:52;20.30;59.40
39033;DHT22;24794;51.982;5.878;2023-06-14T03:17:57;20.30;59.50
39033;DHT22;24794;51.982;5.878;2023-06-14T03:18:57;20.30;59.50
39033;DHT22;24794;51.982;5.878;2023-06-14T03:19:58;20.30;59.50
39033;DHT22;24794;51.982;5.878;2023-06-14T03:20:58;20.30;59.60
39033;DHT22;24794;51.982;5.878;2023-06-14T03:21:59;20.30;59.60
39033;DHT22;24794;51.982;5.878;2023-06-14T03:23:00;20.30;59.70
39033;DHT22;24794;51.982;5.878;2023-06-14T03:24:01;20.30;59.80
39033;DHT22;24794;51.982;5.878;2023-06-14T03:25:04;20.30;59.70
39033;DHT22;24794;51.982;5.878;2023-06-14T03:26:04;20.30;59.80
39033;DHT22;24794;51.982;5.878;2023-06-14T03:27:05;20.20;59.80
39033;DHT22;24794;51.982;5.878;2023-06-14T03:28:06;20.20;59.80
39033;DHT22;24794;51.982;5.878;2023-06-14T03:29:06;20.20;59.80
39033;DHT22;24794;51.982;5.878;2023-06-14T03:30:07;20.20;59.80
39033;DHT22;24794;51.982;5.878;2023-06-14T03:31:08;20.20;59.80
39033;DHT22;24794;51.982;5.878;2023-06-14T03:32:09;20.20;59.80
39033;DHT22;24794;51.982;5.878;2023-06-14T03:33:09;20.30;59.90
39033;DHT22;24794;51.982;5.878;2023-06-14T03:34:10;20.30;59.90
39033;DHT22;24794;51.982;5.878;2023-06-14T03:35:11;20.20;59.90
39033;DHT22;24794;51.982;5.878;2023-06-14T03:36:17;20.20;59.90
39033;DHT22;24794;51.982;5.878;2023-06-14T03:37:18;20.20;60.00
39033;DHT22;24794;51.982;5.878;2023-06-14T03:38:18;20.20;60.00
39033;DHT22;24794;51.982;5.878;2023-06-14T03:39:19;20.20;60.00
39033;DHT22;24794;51.982;5.878;2023-06-14T03:40:21;20.20;60.00
39033;DHT22;24794;51.982;5.878;2023-06-14T03:41:22;20.20;60.10
39033;DHT22;24794;51.982;5.878;2023-06-14T03:42:22;20.20;60.20
39033;DHT22;24794;51.982;5.878;2023-06-14T03:43:23;20.20;60.20
39033;DHT22;24794;51.982;5.878;2023-06-14T03:44:23;20.10;60.30
39033;DHT22;24794;51.982;5.878;2023-06-14T03:45:24;20.10;60.30
39033;DHT22;24794;51.982;5.878;2023-06-14T03:46:24;20.10;60.40
39033;DHT22;24794;51.982;5.878;2023-06-14T03:47:25;20.10;60.50
39033;DHT22;24794;51.982;5.878;2023-06-14T03:48:25;20.10;60.50
39033;DHT22;24794;51.982;5.878;2023-06-14T03:49:26;20.10;60.50
39033;DHT22;24794;51.982;5.878;2023-06-14T03:50:26;20.10;60.50
39033;DHT22;24794;51.982;5.878;2023-06-14T03:51:27;20.10;60.50
39033;DHT22;24794;51.982;5.878;2023-06-14T03:52:29;20.10;60.50
39033;DHT22;24794;51.982;5.878;2023-06-14T03:53:30;20.10;60.60
39033;DHT22;24794;51.982;5.878;2023-06-14T03:54:30;20.10;60.60
39033;DHT22;24794;51.982;5.878;2023-06-14T03:55:32;20.10;61.30
39033;DHT22;24794;51.982;5.878;2023-06-14T03:56:33;20.10;60.70
39033;DHT22;24794;51.982;5.878;2023-06-14T03:57:34;20.10;60.70
39033;DHT22;24794;51.982;5.878;2023-06-14T03:58:34;20.10;60.80
39033;DHT22;24794;51.982;5.878;2023-06-14T03:59:35;20.10;60.80
39033;DHT22;24794;51.982;5.878;2023-06-14T04:00:35;20.00;60.70
39033;DHT22;24794;51.982;5.878;2023-06-14T04:01:36;20.10;60.90
39033;DHT22;24794;51.982;5.878;2023-06-14T04:02:37;20.00;60.90
39033;DHT22;24794;51.982;5.878;2023-06-14T04:03:38;20.00;60.90
39033;DHT22;24794;51.982;5.878;2023-06-14T04:04:40;20.00;60.90
39033;DHT22;24794;51.982;5.878;2023-06-14T04:05:44;20.00;60.90
39033;DHT22;24794;51.982;5.878;2023-06-14T04:06:44;20.00;60.90
39033;DHT22;24794;51.982;5.878;2023-06-14T04:07:48;20.00;61.50
39033;DHT22;24794;51.982;5.878;2023-06-14T04:08:51;20.00;61.00
39033;DHT22;24794;51.982;5.878;2023-06-14T04:09:52;20.00;61.10
39033;DHT22;24794;51.982;5.878;2023-06-14T04:10:53;20.00;61.00
39033;DHT22;24794;51.982;5.878;2023-06-14T04:11:53;20.00;61.00
39033;DHT22;24794;51.982;5.878;2023-06-14T04:12:54;20.00;61.00
39033;DHT22;24794;51.982;5.878;2023-06-14T04:13:54;20.00;61.10
39033;DHT22;24794;51.982;5.878;2023-06-14T04:14:56;20.00;61.20
39033;DHT22;24794;51.982;5.878;2023-06-14T04:15:57;20.00;61.20
39033;DHT22;24794;51.982;5.878;2023-06-14T04:16:57;20.00;61.20
39033;DHT22;24794;51.982;5.878;2023-06-14T04:17:58;20.00;61.20
39033;DHT22;24794;51.982;5.878;2023-06-14T04:18:58;20.00;61.20
39033;DHT22;24794;51.982;5.878;2023-06-14T04:19:59;20.00;61.20
39033;DHT22;24794;51.982;5.878;2023-06-14T04:21:00;20.00;61.30
39033;DHT22;24794;51.982;5.878;2023-06-14T04:22:00;20.00;61.30
39033;DHT22;24794;51.982;5.878;2023-06-14T04:23:13;20.00;61.40
39033;DHT22;24794;51.982;5.878;2023-06-14T04:24:14;20.00;61.50
39033;DHT22;24794;51.982;5.878;2023-06-14T04:25:15;19.90;61.40
39033;DHT22;24794;51.982;5.878;2023-06-14T04:26:15;19.90;61.50
39033;DHT22;24794;51.982;5.878;2023-06-14T04:27:16;20.00;61.50
39033;DHT22;24794;51.982;5.878;2023-06-14T04:28:21;19.90;61.60
39033;DHT22;24794;51.982;5.878;2023-06-14T04:29:27;19.90;61.70
39033;DHT22;24794;51.982;5.878;2023-06-14T04:30:29;19.90;61.70
39033;DHT22;24794;51.982;5.878;2023-06-14T04:31:32;19.90;61.80
39033;DHT22;24794;51.982;5.878;2023-06-14T04:32:37;19.90;61.80
39033;DHT22;24794;51.982;5.878;2023-06-14T04:33:39;19.90;61.90
39033;DHT22;24794;51.982;5.878;2023-06-14T04:34:43;19.80;61.90
39033;DHT22;24794;51.982;5.878;2023-06-14T04:35:44;19.80;62.00
39033;DHT22;24794;51.982;5.878;2023-06-14T04:36:47;19.80;62.60
39033;DHT22;24794;51.982;5.878;2023-06-14T04:37:53;19.90;62.10
39033;DHT22;24794;51.982;5.878;2023-06-14T04:38:53;19.90;62.10
39033;DHT22;24794;51.982;5.878;2023-06-14T04:39:55;19.80;62.10
39033;DHT22;24794;51.982;5.878;2023-06-14T04:40:56;19.80;62.10
39033;DHT22;24794;51.982;5.878;2023-06-14T04:41:57;19.80;62.10
39033;DHT22;24794;51.982;5.878;2023-06-14T04:42:58;19.80;62.20
39033;DHT22;24794;51.982;5.878;2023-06-14T04:44:00;19.80;62.20
39033;DHT22;24794;51.982;5.878;2023-06-14T04:45:01;19.80;62.40
39033;DHT22;24794;51.982;5.878;2023-06-14T04:46:02;19.80;62.40
39033;DHT22;24794;51.982;5.878;2023-06-14T04:47:03;19.70;62.40
39033;DHT22;24794;51.982;5.878;2023-06-14T04:48:04;19.70;62.50
39033;DHT22;24794;51.982;5.878;2023-06-14T04:49:06;19.70;62.60
39033;DHT22;24794;51.982;5.878;2023-06-14T04:50:07;19.70;62.60
39033;DHT22;24794;51.982;5.878;2023-06-14T04:51:08;19.70;62.70
39033;DHT22;24794;51.982;5.878;2023-06-14T04:52:09;19.70;62.80
39033;DHT22;24794;51.982;5.878;2023-06-14T04:53:10;19.70;62.90
39033;DHT22;24794;51.982;5.878;2023-06-14T04:54:12;19.70;62.90
39033;DHT22;24794;51.982;5.878;2023-06-14T04:55:15;19.60;62.90
39033;DHT22;24794;51.982;5.878;2023-06-14T04:56:15;19.70;63.00
39033;DHT22;24794;51.982;5.878;2023-06-14T04:57:17;19.60;63.10
39033;DHT22;24794;51.982;5.878;2023-06-14T04:58:17;19.60;63.20
39033;DHT22;24794;51.982;5.878;2023-06-14T04:59:18;19.60;63.20
39033;DHT22;24794;51.982;5.878;2023-06-14T05:00:20;19.60;63.30
39033;DHT22;24794;51.982;5.878;2023-06-14T05:01:21;19.60;63.30
39033;DHT22;24794;51.982;5.878;2023-06-14T05:02:23;19.60;63.40
39033;DHT22;24794;51.982;5.878;2023-06-14T05:03:25;19.50;63.50
39033;DHT22;24794;51.982;5.878;2023-06-14T05:04:25;19.50;63.50
39033;DHT22;24794;51.982;5.878;2023-06-14T05:05:28;19.60;63.50
39033;DHT22;24794;51.982;5.878;2023-06-14T05:06:29;19.50;63.50
39033;DHT22;24794;51.982;5.878;2023-06-14T05:07:30;19.50;63.60
39033;DHT22;24794;51.982;5.878;2023-06-14T05:08:31;19.50;63.60
39033;DHT22;24794;51.982;5.878;2023-06-14T05:09:32;19.60;63.70
39033;DHT22;24794;51.982;5.878;2023-06-14T05:10:33;19.60;63.80
39033;DHT22;24794;51.982;5.878;2023-06-14T05:11:35;19.60;63.80
39033;DHT22;24794;51.982;5.878;2023-06-14T05:12:35;19.60;63.80
39033;DHT22;24794;51.982;5.878;2023-06-14T05:13:36;19.60;63.80
39033;DHT22;24794;51.982;5.878;2023-06-14T05:14:37;19.70;63.80
39033;DHT22;24794;51.982;5.878;2023-06-14T05:15:37;19.70;63.80
39033;DHT22;24794;51.982;5.878;2023-06-14T05:16:38;19.70;64.40
39033;DHT22;24794;51.982;5.878;2023-06-14T05:17:39;19.70;63.80
39033;DHT22;24794;51.982;5.878;2023-06-14T05:18:41;19.70;63.70
39033;DHT22;24794;51.982;5.878;2023-06-14T05:19:41;19.80;63.80
39033;DHT22;24794;51.982;5.878;2023-06-14T05:20:42;19.80;63.70
39033;DHT22;24794;51.982;5.878;2023-06-14T05:21:42;19.90;63.70
39033;DHT22;24794;51.982;5.878;2023-06-14T05:22:43;19.90;63.70
39033;DHT22;24794;51.982;5.878;2023-06-14T05:23:47;19.90;63.70
39033;DHT22;24794;51.982;5.878;2023-06-14T05:24:47;19.90;63.50
39033;DHT22;24794;51.982;5.878;2023-06-14T05:25:48;19.90;63.40
39033;DHT22;24794;51.982;5.878;2023-06-14T05:26:49;20.00;63.40
39033;DHT22;24794;51.982;5.878;2023-06-14T05:27:49;20.00;63.50
39033;DHT22;24794;51.982;5.878;2023-06-14T05:28:50;20.00;63.40
39033;DHT22;24794;51.982;5.878;2023-06-14T05:29:52;20.00;63.40
39033;DHT22;24794;51.982;5.878;2023-06-14T05:30:56;20.00;63.30
39033;DHT22;24794;51.982;5.878;2023-06-14T05:31:56;20.00;63.20
39033;DHT22;24794;51.982;5.878;2023-06-14T05:32:57;20.00;63.00
39033;DHT22;24794;51.982;5.878;2023-06-14T05:33:57;20.00;63.10
39033;DHT22;24794;51.982;5.878;2023-06-14T05:34:58;20.10;63.30
39033;DHT22;24794;51.982;5.878;2023-06-14T05:35:58;20.10;63.40
39033;DHT22;24794;51.982;5.878;2023-06-14T05:36:59;20.10;63.60
39033;DHT22;24794;51.982;5.878;2023-06-14T05:38:00;20.10;63.50
39033;DHT22;24794;51.982;5.878;2023-06-14T05:39:01;20.10;63.40
39033;DHT22;24794;51.982;5.878;2023-06-14T05:40:04;20.20;63.40
39033;DHT22;24794;51.982;5.878;2023-06-14T05:41:07;20.20;63.40
39033;DHT22;24794;51.982;5.878;2023-06-14T05:42:08;20.20;63.40
39033;DHT22;24794;51.982;5.878;2023-06-14T05:43:09;20.20;63.40
39033;DHT22;24794;51.982;5.878;2023-06-14T05:44:09;20.30;63.50
39033;DHT22;24794;51.982;5.878;2023-06-14T05:45:10;20.30;63.40
39033;DHT22;24794;51.982;5.878;2023-06-14T05:46:10;20.40;63.40
39033;DHT22;24794;51.982;5.878;2023-06-14T05:47:11;20.40;63.40
39033;DHT22;24794;51.982;5.878;2023-06-14T05:48:11;20.40;63.40
39033;DHT22;24794;51.982;5.878;2023-06-14T05:49:12;20.40;63.30
39033;DHT22;24794;51.982;5.878;2023-06-14T05:50:12;20.40;63.40
39033;DHT22;24794;51.982;5.878;2023-06-14T05:51:13;20.50;63.50
39033;DHT22;24794;51.982;5.878;2023-06-14T05:52:13;20.50;63.30
39033;DHT22;24794;51.982;5.878;2023-06-14T05:53:14;20.60;63.20
39033;DHT22;24794;51.982;5.878;2023-06-14T05:54:14;20.60;63.00
39033;DHT22;24794;51.982;5.878;2023-06-14T05:55:16;20.60;63.00
39033;DHT22;24794;51.982;5.878;2023-06-14T05:56:18;20.60;62.90
39033;DHT22;24794;51.982;5.878;2023-06-14T05:57:18;20.60;62.80
39033;DHT22;24794;51.982;5.878;2023-06-14T05:58:19;20.60;62.90
39033;DHT22;24794;51.982;5.878;2023-06-14T05:59:19;20.60;62.80
39033;DHT22;24794;51.982;5.878;2023-06-14T06:00:20;20.70;62.90
39033;DHT22;24794;51.982;5.878;2023-06-14T06:01:21;20.70;62.70
39033;DHT22;24794;51.982;5.878;2023-06-14T06:02:22;20.70;62.80
39033;DHT22;24794;51.982;5.878;2023-06-14T06:03:23;20.70;63.00
39033;DHT22;24794;51.982;5.878;2023-06-14T06:04:23;20.70;62.80
39033;DHT22;24794;51.982;5.878;2023-06-14T06:05:24;20.80;62.90
39033;DHT22;24794;51.982;5.878;2023-06-14T06:06:25;20.80;62.90
39033;DHT22;24794;51.982;5.878;2023-06-14T06:07:25;20.80;62.80
39033;DHT22;24794;51.982;5.878;2023-06-14T06:08:29;20.80;62.70
39033;DHT22;24794;51.982;5.878;2023-06-14T06:09:30;20.90;62.80
39033;DHT22;24794;51.982;5.878;2023-06-14T06:10:31;20.90;62.80
39033;DHT22;24794;51.982;5.878;2023-06-14T06:11:31;21.00;62.80
39033;DHT22;24794;51.982;5.878;2023-06-14T06:12:32;21.00;62.80
39033;DHT22;24794;51.982;5.878;2023-06-14T06:13:33;21.10;62.70
39033;DHT22;24794;51.982;5.878;2023-06-14T06:14:34;21.10;62.50
39033;DHT22;24794;51.982;5.878;2023-06-14T06:15:35;21.20;62.50
39033;DHT22;24794;51.982;5.878;2023-06-14T06:16:36;21.20;62.50
39033;DHT22;24794;51.982;5.878;2023-06-14T06:17:37;21.30;62.50
39033;DHT22;24794;51.982;5.878;2023-06-14T06:18:37;21.30;62.50
39033;DHT22;24794;51.982;5.878;2023-06-14T06:19:38;21.30;62.40
39033;DHT22;24794;51.982;5.878;2023-06-14T06:20:38;21.30;62.40
39033;DHT22;24794;51.982;5.878;2023-06-14T06:21:39;21.40;62.30
39033;DHT22;24794;51.982;5.878;2023-06-14T06:22:40;21.40;62.40
39033;DHT22;24794;51.982;5.878;2023-06-14T06:23:40;21.50;62.50
39033;DHT22;24794;51.982;5.878;2023-06-14T06:24:41;21.50;62.30
39033;DHT22;24794;51.982;5.878;2023-06-14T06:25:42;21.50;62.10
39033;DHT22;24794;51.982;5.878;2023-06-14T06:26:43;21.60;62.00
39033;DHT22;24794;51.982;5.878;2023-06-14T06:27:43;21.60;61.90
39033;DHT22;24794;51.982;5.878;2023-06-14T06:28:44;21.60;62.00
39033;DHT22;24794;51.982;5.878;2023-06-14T06:29:45;21.60;62.10
39033;DHT22;24794;51.982;5.878;2023-06-14T06:30:45;21.70;62.20
39033;DHT22;24794;51.982;5.878;2023-06-14T06:31:46;21.70;62.20